KMLB/MLB METAR and TAF weather

Enter ICAO airport designator
Station Type Date Time Source
KMLB METAR 2022/12/10 01:53 UTC NOAA

KMLB 100153Z 00000KT 10SM CLR 19/17 A3011 RMK AO2 SLP194 T01890167


Station Type Date Time Source
KMLB Decoded METAR 2022/12/10 01:53 UTC NOAA

MELBOURNE INTERNATIONAL, FL, United States (KMLB) 28-06N 080-39W 10M
Dec 09, 2022 - 08:53 PM EST / 2022.12.10 0153 UTC
Wind: Calm:0
Visibility: 10 mile(s):0
Sky conditions: clear
Temperature: 66.0 F (18.9 C)
Dew Point: 62.1 F (16.7 C)
Relative Humidity: 87%
Pressure (altimeter): 30.11 in. Hg (1019 hPa)
ob: KMLB 100153Z 00000KT 10SM CLR 19/17 A3011 RMK AO2 SLP194 T01890167
cycle: 2

Station Type Date Time Source
KMLB TAF 2022/12/09 18:24 UTC NOAA

TAF KMLB 091722Z 0918/1018 35010KT P6SM SCT040
FM100000 01003KT P6SM SCT035
FM101500 33006KT P6SM FEW035

Example: see airport list